sensor_id;sensor_type;location;lat;lon;timestamp;P1;durP1;ratioP1;P2;durP2;ratioP2
13941;SDS011;7043;51.630;7.254;2023-11-21T00:01:57;28.53;;;17.37;;
13941;SDS011;7043;51.630;7.254;2023-11-21T00:04:23;23.43;;;17.70;;
13941;SDS011;7043;51.630;7.254;2023-11-21T00:06:49;21.53;;;17.37;;
13941;SDS011;7043;51.630;7.254;2023-11-21T00:09:15;24.43;;;17.63;;
13941;SDS011;7043;51.630;7.254;2023-11-21T00:11:43;27.10;;;17.47;;
13941;SDS011;7043;51.630;7.254;2023-11-21T00:14:09;23.47;;;17.60;;
13941;SDS011;7043;51.630;7.254;2023-11-21T00:16:35;24.03;;;17.67;;
13941;SDS011;7043;51.630;7.254;2023-11-21T00:19:01;27.30;;;18.40;;
13941;SDS011;7043;51.630;7.254;2023-11-21T00:21:27;22.03;;;17.20;;
13941;SDS011;7043;51.630;7.254;2023-11-21T00:23:53;29.10;;;19.10;;
13941;SDS011;7043;51.630;7.254;2023-11-21T00:26:19;24.17;;;18.57;;
13941;SDS011;7043;51.630;7.254;2023-11-21T00:28:45;20.97;;;17.43;;
13941;SDS011;7043;51.630;7.254;2023-11-21T00:31:11;26.30;;;19.23;;
13941;SDS011;7043;51.630;7.254;2023-11-21T00:33:37;23.93;;;18.70;;
13941;SDS011;7043;51.630;7.254;2023-11-21T00:36:03;28.93;;;19.77;;
13941;SDS011;7043;51.630;7.254;2023-11-21T00:38:31;25.23;;;19.77;;
13941;SDS011;7043;51.630;7.254;2023-11-21T00:40:57;26.40;;;20.37;;
13941;SDS011;7043;51.630;7.254;2023-11-21T00:43:23;26.37;;;21.23;;
13941;SDS011;7043;51.630;7.254;2023-11-21T00:45:49;26.27;;;19.63;;
13941;SDS011;7043;51.630;7.254;2023-11-21T00:48:16;29.53;;;20.93;;
13941;SDS011;7043;51.630;7.254;2023-11-21T00:50:43;23.37;;;19.10;;
13941;SDS011;7043;51.630;7.254;2023-11-21T00:53:09;28.67;;;19.47;;
13941;SDS011;7043;51.630;7.254;2023-11-21T00:55:36;24.27;;;17.27;;
13941;SDS011;7043;51.630;7.254;2023-11-21T00:58:03;26.10;;;18.83;;
13941;SDS011;7043;51.630;7.254;2023-11-21T01:00:29;26.17;;;18.57;;
13941;SDS011;7043;51.630;7.254;2023-11-21T01:02:55;24.17;;;18.33;;
13941;SDS011;7043;51.630;7.254;2023-11-21T01:05:21;26.70;;;18.50;;
13941;SDS011;7043;51.630;7.254;2023-11-21T01:07:47;26.37;;;17.90;;
13941;SDS011;7043;51.630;7.254;2023-11-21T01:10:16;25.53;;;18.70;;
13941;SDS011;7043;51.630;7.254;2023-11-21T01:12:42;25.60;;;18.40;;
13941;SDS011;7043;51.630;7.254;2023-11-21T01:15:11;26.53;;;18.47;;
13941;SDS011;7043;51.630;7.254;2023-11-21T01:17:40;24.63;;;17.70;;
13941;SDS011;7043;51.630;7.254;2023-11-21T01:20:06;22.43;;;16.80;;
13941;SDS011;7043;51.630;7.254;2023-11-21T01:22:37;21.93;;;16.87;;
13941;SDS011;7043;51.630;7.254;2023-11-21T01:25:03;24.23;;;17.60;;
13941;SDS011;7043;51.630;7.254;2023-11-21T01:27:32;23.83;;;17.53;;
13941;SDS011;7043;51.630;7.254;2023-11-21T01:29:58;23.63;;;17.43;;
13941;SDS011;7043;51.630;7.254;2023-11-21T01:32:24;26.17;;;18.47;;
13941;SDS011;7043;51.630;7.254;2023-11-21T01:34:50;22.03;;;17.70;;
13941;SDS011;7043;51.630;7.254;2023-11-21T01:37:16;22.37;;;18.00;;
13941;SDS011;7043;51.630;7.254;2023-11-21T01:39:42;22.63;;;17.43;;
13941;SDS011;7043;51.630;7.254;2023-11-21T01:42:09;22.60;;;16.13;;
13941;SDS011;7043;51.630;7.254;2023-11-21T01:44:36;23.13;;;17.13;;
13941;SDS011;7043;51.630;7.254;2023-11-21T01:47:02;21.67;;;17.40;;
13941;SDS011;7043;51.630;7.254;2023-11-21T01:49:30;21.57;;;15.93;;
13941;SDS011;7043;51.630;7.254;2023-11-21T01:51:57;22.30;;;16.27;;
13941;SDS011;7043;51.630;7.254;2023-11-21T01:54:23;21.50;;;16.40;;
13941;SDS011;7043;51.630;7.254;2023-11-21T01:56:49;20.67;;;15.17;;
13941;SDS011;7043;51.630;7.254;2023-11-21T01:59:17;22.47;;;15.70;;
13941;SDS011;7043;51.630;7.254;2023-11-21T02:01:44;20.90;;;15.17;;
13941;SDS011;7043;51.630;7.254;2023-11-21T02:04:11;23.27;;;15.20;;
13941;SDS011;7043;51.630;7.254;2023-11-21T02:06:37;20.43;;;15.80;;
13941;SDS011;7043;51.630;7.254;2023-11-21T02:09:04;22.33;;;15.60;;
13941;SDS011;7043;51.630;7.254;2023-11-21T02:11:30;24.23;;;15.87;;
13941;SDS011;7043;51.630;7.254;2023-11-21T02:13:58;21.87;;;15.37;;
13941;SDS011;7043;51.630;7.254;2023-11-21T02:16:25;23.97;;;16.27;;
13941;SDS011;7043;51.630;7.254;2023-11-21T02:18:52;25.93;;;16.53;;
13941;SDS011;7043;51.630;7.254;2023-11-21T02:21:19;27.07;;;16.40;;
13941;SDS011;7043;51.630;7.254;2023-11-21T02:23:45;23.00;;;16.20;;
13941;SDS011;7043;51.630;7.254;2023-11-21T02:26:12;25.30;;;17.30;;
13941;SDS011;7043;51.630;7.254;2023-11-21T02:28:38;26.87;;;18.13;;
13941;SDS011;7043;51.630;7.254;2023-11-21T02:31:05;29.33;;;17.40;;
13941;SDS011;7043;51.630;7.254;2023-11-21T02:33:32;26.80;;;18.47;;
13941;SDS011;7043;51.630;7.254;2023-11-21T02:35:59;29.73;;;19.10;;
13941;SDS011;7043;51.630;7.254;2023-11-21T02:38:25;24.27;;;17.67;;
13941;SDS011;7043;51.630;7.254;2023-11-21T02:40:51;25.17;;;17.97;;
13941;SDS011;7043;51.630;7.254;2023-11-21T02:43:17;27.37;;;17.53;;
13941;SDS011;7043;51.630;7.254;2023-11-21T02:45:43;28.63;;;18.00;;
13941;SDS011;7043;51.630;7.254;2023-11-21T02:48:09;26.57;;;18.30;;
13941;SDS011;7043;51.630;7.254;2023-11-21T02:50:35;31.93;;;18.37;;
13941;SDS011;7043;51.630;7.254;2023-11-21T02:53:02;26.27;;;18.43;;
13941;SDS011;7043;51.630;7.254;2023-11-21T02:55:30;26.87;;;19.00;;
13941;SDS011;7043;51.630;7.254;2023-11-21T02:57:59;28.83;;;19.77;;
13941;SDS011;7043;51.630;7.254;2023-11-21T03:00:25;28.90;;;19.30;;
13941;SDS011;7043;51.630;7.254;2023-11-21T03:02:53;29.10;;;19.90;;
13941;SDS011;7043;51.630;7.254;2023-11-21T03:05:19;30.40;;;19.90;;
13941;SDS011;7043;51.630;7.254;2023-11-21T03:07:45;33.07;;;21.37;;
13941;SDS011;7043;51.630;7.254;2023-11-21T03:10:11;31.90;;;20.43;;
13941;SDS011;7043;51.630;7.254;2023-11-21T03:12:37;37.37;;;21.90;;
13941;SDS011;7043;51.630;7.254;2023-11-21T03:15:04;36.23;;;22.43;;
13941;SDS011;7043;51.630;7.254;2023-11-21T03:17:31;34.17;;;22.43;;
13941;SDS011;7043;51.630;7.254;2023-11-21T03:19:58;31.27;;;21.33;;
13941;SDS011;7043;51.630;7.254;2023-11-21T03:22:24;32.17;;;21.40;;
13941;SDS011;7043;51.630;7.254;2023-11-21T03:24:51;33.40;;;21.33;;
13941;SDS011;7043;51.630;7.254;2023-11-21T03:27:17;29.27;;;21.10;;
13941;SDS011;7043;51.630;7.254;2023-11-21T03:29:44;32.60;;;22.30;;
13941;SDS011;7043;51.630;7.254;2023-11-21T03:32:11;30.07;;;20.63;;
13941;SDS011;7043;51.630;7.254;2023-11-21T03:34:52;33.23;;;21.00;;
13941;SDS011;7043;51.630;7.254;2023-11-21T03:37:18;32.43;;;20.97;;
13941;SDS011;7043;51.630;7.254;2023-11-21T03:39:45;33.50;;;19.63;;
13941;SDS011;7043;51.630;7.254;2023-11-21T03:42:12;30.03;;;19.93;;
13941;SDS011;7043;51.630;7.254;2023-11-21T03:44:38;31.67;;;20.43;;
13941;SDS011;7043;51.630;7.254;2023-11-21T03:47:04;33.13;;;20.07;;
13941;SDS011;7043;51.630;7.254;2023-11-21T03:49:30;35.63;;;21.97;;
13941;SDS011;7043;51.630;7.254;2023-11-21T03:51:56;30.43;;;20.27;;
13941;SDS011;7043;51.630;7.254;2023-11-21T03:54:22;35.63;;;21.20;;
13941;SDS011;7043;51.630;7.254;2023-11-21T03:56:48;32.43;;;21.37;;
13941;SDS011;7043;51.630;7.254;2023-11-21T03:59:14;34.13;;;21.37;;
13941;SDS011;7043;51.630;7.254;2023-11-21T04:01:44;33.67;;;21.30;;
13941;SDS011;7043;51.630;7.254;2023-11-21T04:04:10;37.20;;;22.23;;
13941;SDS011;7043;51.630;7.254;2023-11-21T04:06:36;38.43;;;22.47;;
13941;SDS011;7043;51.630;7.254;2023-11-21T04:09:03;32.10;;;21.70;;
13941;SDS011;7043;51.630;7.254;2023-11-21T04:11:29;35.77;;;21.97;;
13941;SDS011;7043;51.630;7.254;2023-11-21T04:13:55;36.00;;;22.20;;
13941;SDS011;7043;51.630;7.254;2023-11-21T04:16:21;32.70;;;22.07;;
13941;SDS011;7043;51.630;7.254;2023-11-21T04:18:48;36.13;;;22.90;;
13941;SDS011;7043;51.630;7.254;2023-11-21T04:21:14;36.67;;;22.33;;
13941;SDS011;7043;51.630;7.254;2023-11-21T04:23:40;39.10;;;21.93;;
13941;SDS011;7043;51.630;7.254;2023-11-21T04:26:06;35.70;;;22.97;;
13941;SDS011;7043;51.630;7.254;2023-11-21T04:28:32;36.43;;;22.90;;
13941;SDS011;7043;51.630;7.254;2023-11-21T04:30:58;39.40;;;22.77;;
13941;SDS011;7043;51.630;7.254;2023-11-21T04:33:24;36.57;;;22.13;;
13941;SDS011;7043;51.630;7.254;2023-11-21T04:35:50;36.70;;;22.80;;
13941;SDS011;7043;51.630;7.254;2023-11-21T04:38:16;37.10;;;22.73;;
13941;SDS011;7043;51.630;7.254;2023-11-21T04:40:44;34.93;;;22.33;;
13941;SDS011;7043;51.630;7.254;2023-11-21T04:43:10;34.40;;;21.97;;
13941;SDS011;7043;51.630;7.254;2023-11-21T04:45:37;37.33;;;22.60;;
13941;SDS011;7043;51.630;7.254;2023-11-21T04:48:03;36.10;;;22.83;;
13941;SDS011;7043;51.630;7.254;2023-11-21T04:50:30;37.97;;;22.83;;
13941;SDS011;7043;51.630;7.254;2023-11-21T04:52:56;38.87;;;23.23;;
13941;SDS011;7043;51.630;7.254;2023-11-21T04:55:22;38.53;;;23.93;;
13941;SDS011;7043;51.630;7.254;2023-11-21T04:57:48;34.27;;;22.80;;
13941;SDS011;7043;51.630;7.254;2023-11-21T05:00:14;35.77;;;22.87;;
13941;SDS011;7043;51.630;7.254;2023-11-21T05:02:40;34.83;;;22.77;;
13941;SDS011;7043;51.630;7.254;2023-11-21T05:05:07;36.50;;;22.93;;
13941;SDS011;7043;51.630;7.254;2023-11-21T05:07:35;34.03;;;21.23;;
13941;SDS011;7043;51.630;7.254;2023-11-21T05:10:01;30.10;;;21.57;;
13941;SDS011;7043;51.630;7.254;2023-11-21T05:12:33;35.97;;;22.87;;
13941;SDS011;7043;51.630;7.254;2023-11-21T05:15:08;36.17;;;22.20;;
13941;SDS011;7043;51.630;7.254;2023-11-21T05:17:37;34.33;;;20.90;;
13941;SDS011;7043;51.630;7.254;2023-11-21T05:20:07;31.17;;;21.07;;
13941;SDS011;7043;51.630;7.254;2023-11-21T05:22:34;34.90;;;22.63;;
13941;SDS011;7043;51.630;7.254;2023-11-21T05:25:01;33.50;;;21.13;;
13941;SDS011;7043;51.630;7.254;2023-11-21T05:27:28;34.43;;;23.17;;
13941;SDS011;7043;51.630;7.254;2023-11-21T05:29:55;40.53;;;24.93;;
13941;SDS011;7043;51.630;7.254;2023-11-21T05:32:21;33.47;;;24.13;;
13941;SDS011;7043;51.630;7.254;2023-11-21T05:34:47;37.03;;;23.47;;
13941;SDS011;7043;51.630;7.254;2023-11-21T05:37:14;34.27;;;22.33;;
13941;SDS011;7043;51.630;7.254;2023-11-21T05:39:40;33.67;;;22.37;;
13941;SDS011;7043;51.630;7.254;2023-11-21T05:42:06;34.07;;;23.37;;
13941;SDS011;7043;51.630;7.254;2023-11-21T05:44:34;35.20;;;23.47;;
13941;SDS011;7043;51.630;7.254;2023-11-21T05:47:03;34.57;;;22.57;;
13941;SDS011;7043;51.630;7.254;2023-11-21T05:49:31;36.33;;;23.90;;
13941;SDS011;7043;51.630;7.254;2023-11-21T05:51:57;38.30;;;24.17;;
13941;SDS011;7043;51.630;7.254;2023-11-21T05:54:23;33.30;;;22.63;;
13941;SDS011;7043;51.630;7.254;2023-11-21T05:56:49;34.43;;;21.80;;
13941;SDS011;7043;51.630;7.254;2023-11-21T05:59:15;35.90;;;23.37;;
13941;SDS011;7043;51.630;7.254;2023-11-21T06:01:41;35.23;;;22.67;;
13941;SDS011;7043;51.630;7.254;2023-11-21T06:04:09;30.03;;;20.67;;
13941;SDS011;7043;51.630;7.254;2023-11-21T06:06:35;29.73;;;20.77;;
13941;SDS011;7043;51.630;7.254;2023-11-21T06:09:01;31.57;;;21.33;;
13941;SDS011;7043;51.630;7.254;2023-11-21T06:11:27;29.67;;;21.73;;
13941;SDS011;7043;51.630;7.254;2023-11-21T06:13:54;29.60;;;20.67;;
13941;SDS011;7043;51.630;7.254;2023-11-21T06:16:20;32.70;;;21.63;;
13941;SDS011;7043;51.630;7.254;2023-11-21T06:18:46;32.17;;;22.00;;
13941;SDS011;7043;51.630;7.254;2023-11-21T06:21:12;33.67;;;21.93;;
13941;SDS011;7043;51.630;7.254;2023-11-21T06:23:38;32.80;;;20.87;;
13941;SDS011;7043;51.630;7.254;2023-11-21T06:26:05;29.23;;;19.20;;
13941;SDS011;7043;51.630;7.254;2023-11-21T06:28:31;41.97;;;26.40;;
13941;SDS011;7043;51.630;7.254;2023-11-21T06:30:57;39.00;;;24.50;;
13941;SDS011;7043;51.630;7.254;2023-11-21T06:33:23;39.57;;;25.23;;
13941;SDS011;7043;51.630;7.254;2023-11-21T06:35:52;38.23;;;25.70;;
13941;SDS011;7043;51.630;7.254;2023-11-21T06:38:18;40.30;;;26.37;;
13941;SDS011;7043;51.630;7.254;2023-11-21T06:40:44;39.83;;;25.40;;
13941;SDS011;7043;51.630;7.254;2023-11-21T06:43:11;39.90;;;24.73;;
13941;SDS011;7043;51.630;7.254;2023-11-21T06:45:37;39.70;;;25.33;;
13941;SDS011;7043;51.630;7.254;2023-11-21T06:48:03;42.40;;;25.50;;
13941;SDS011;7043;51.630;7.254;2023-11-21T06:50:29;39.23;;;24.63;;
13941;SDS011;7043;51.630;7.254;2023-11-21T06:52:56;41.77;;;25.00;;
13941;SDS011;7043;51.630;7.254;2023-11-21T06:55:22;41.00;;;24.67;;
13941;SDS011;7043;51.630;7.254;2023-11-21T06:57:48;38.67;;;26.57;;
13941;SDS011;7043;51.630;7.254;2023-11-21T07:00:15;44.67;;;26.10;;
13941;SDS011;7043;51.630;7.254;2023-11-21T07:02:42;41.77;;;26.33;;
13941;SDS011;7043;51.630;7.254;2023-11-21T07:05:11;42.90;;;25.77;;
13941;SDS011;7043;51.630;7.254;2023-11-21T07:07:39;46.00;;;27.80;;
13941;SDS011;7043;51.630;7.254;2023-11-21T07:10:14;43.03;;;26.50;;
13941;SDS011;7043;51.630;7.254;2023-11-21T07:12:40;47.93;;;27.40;;
13941;SDS011;7043;51.630;7.254;2023-11-21T07:15:12;47.50;;;26.73;;
13941;SDS011;7043;51.630;7.254;2023-11-21T07:17:38;50.23;;;29.20;;
13941;SDS011;7043;51.630;7.254;2023-11-21T07:20:05;46.70;;;28.77;;
13941;SDS011;7043;51.630;7.254;2023-11-21T07:22:31;51.47;;;28.83;;
13941;SDS011;7043;51.630;7.254;2023-11-21T07:24:57;50.50;;;28.97;;
13941;SDS011;7043;51.630;7.254;2023-11-21T07:27:23;49.50;;;28.13;;
13941;SDS011;7043;51.630;7.254;2023-11-21T07:29:49;48.03;;;28.10;;
13941;SDS011;7043;51.630;7.254;2023-11-21T07:32:16;51.90;;;28.90;;
13941;SDS011;7043;51.630;7.254;2023-11-21T07:34:42;47.17;;;28.73;;
13941;SDS011;7043;51.630;7.254;2023-11-21T07:37:08;48.67;;;28.10;;
13941;SDS011;7043;51.630;7.254;2023-11-21T07:39:35;43.17;;;27.60;;
13941;SDS011;7043;51.630;7.254;2023-11-21T07:42:01;46.73;;;27.60;;
13941;SDS011;7043;51.630;7.254;2023-11-21T07:44:28;40.90;;;26.20;;
13941;SDS011;7043;51.630;7.254;2023-11-21T07:46:56;43.43;;;26.50;;
13941;SDS011;7043;51.630;7.254;2023-11-21T07:49:23;41.73;;;25.63;;
13941;SDS011;7043;51.630;7.254;2023-11-21T07:51:49;44.20;;;25.30;;
13941;SDS011;7043;51.630;7.254;2023-11-21T07:54:15;43.63;;;26.10;;
13941;SDS011;7043;51.630;7.254;2023-11-21T07:56:44;48.00;;;27.77;;
13941;SDS011;7043;51.630;7.254;2023-11-21T07:59:10;43.43;;;27.40;;
13941;SDS011;7043;51.630;7.254;2023-11-21T08:01:36;45.33;;;27.30;;
13941;SDS011;7043;51.630;7.254;2023-11-21T08:04:03;47.70;;;28.97;;
13941;SDS011;7043;51.630;7.254;2023-11-21T08:06:29;47.80;;;27.67;;
13941;SDS011;7043;51.630;7.254;2023-11-21T08:08:56;48.23;;;29.37;;
13941;SDS011;7043;51.630;7.254;2023-11-21T08:11:22;48.03;;;30.13;;
13941;SDS011;7043;51.630;7.254;2023-11-21T08:13:48;54.17;;;32.07;;
13941;SDS011;7043;51.630;7.254;2023-11-21T08:16:14;57.27;;;32.23;;
13941;SDS011;7043;51.630;7.254;2023-11-21T08:18:41;71.47;;;34.47;;
13941;SDS011;7043;51.630;7.254;2023-11-21T08:21:07;58.63;;;34.10;;
13941;SDS011;7043;51.630;7.254;2023-11-21T08:23:34;73.17;;;36.23;;
13941;SDS011;7043;51.630;7.254;2023-11-21T08:26:00;67.03;;;36.23;;
13941;SDS011;7043;51.630;7.254;2023-11-21T08:28:28;78.40;;;37.13;;
13941;SDS011;7043;51.630;7.254;2023-11-21T08:30:55;84.07;;;38.60;;
13941;SDS011;7043;51.630;7.254;2023-11-21T08:33:21;80.90;;;36.97;;
13941;SDS011;7043;51.630;7.254;2023-11-21T08:35:48;89.60;;;39.77;;
13941;SDS011;7043;51.630;7.254;2023-11-21T08:38:15;83.57;;;39.30;;
13941;SDS011;7043;51.630;7.254;2023-11-21T08:40:41;88.60;;;40.37;;
13941;SDS011;7043;51.630;7.254;2023-11-21T08:43:07;83.20;;;41.97;;
13941;SDS011;7043;51.630;7.254;2023-11-21T08:45:37;89.17;;;41.27;;
13941;SDS011;7043;51.630;7.254;2023-11-21T08:48:03;79.50;;;40.10;;
13941;SDS011;7043;51.630;7.254;2023-11-21T08:50:29;90.00;;;40.93;;
13941;SDS011;7043;51.630;7.254;2023-11-21T08:52:55;81.57;;;42.03;;
13941;SDS011;7043;51.630;7.254;2023-11-21T08:55:21;83.97;;;40.40;;
13941;SDS011;7043;51.630;7.254;2023-11-21T08:57:47;82.20;;;41.00;;
13941;SDS011;7043;51.630;7.254;2023-11-21T09:00:13;81.97;;;40.93;;
13941;SDS011;7043;51.630;7.254;2023-11-21T09:02:42;81.77;;;41.77;;
13941;SDS011;7043;51.630;7.254;2023-11-21T09:05:08;77.23;;;40.47;;
13941;SDS011;7043;51.630;7.254;2023-11-21T09:07:35;80.93;;;41.93;;
13941;SDS011;7043;51.630;7.254;2023-11-21T09:10:01;76.47;;;42.70;;
13941;SDS011;7043;51.630;7.254;2023-11-21T09:12:28;77.40;;;40.50;;
13941;SDS011;7043;51.630;7.254;2023-11-21T09:14:54;80.23;;;42.10;;
13941;SDS011;7043;51.630;7.254;2023-11-21T09:17:20;75.83;;;43.87;;
13941;SDS011;7043;51.630;7.254;2023-11-21T09:19:46;78.90;;;42.00;;
13941;SDS011;7043;51.630;7.254;2023-11-21T09:22:16;80.30;;;42.40;;
13941;SDS011;7043;51.630;7.254;2023-11-21T09:24:42;92.67;;;43.63;;
13941;SDS011;7043;51.630;7.254;2023-11-21T09:27:08;82.37;;;42.70;;
13941;SDS011;7043;51.630;7.254;2023-11-21T09:29:34;89.47;;;45.53;;
13941;SDS011;7043;51.630;7.254;2023-11-21T09:32:02;86.73;;;43.60;;
13941;SDS011;7043;51.630;7.254;2023-11-21T09:34:28;83.07;;;43.30;;
13941;SDS011;7043;51.630;7.254;2023-11-21T09:36:54;88.47;;;43.83;;
13941;SDS011;7043;51.630;7.254;2023-11-21T09:39:20;77.07;;;43.00;;
13941;SDS011;7043;51.630;7.254;2023-11-21T09:41:50;74.67;;;43.00;;
13941;SDS011;7043;51.630;7.254;2023-11-21T09:44:22;82.47;;;42.93;;
13941;SDS011;7043;51.630;7.254;2023-11-21T09:46:48;88.97;;;44.27;;
13941;SDS011;7043;51.630;7.254;2023-11-21T09:49:14;82.97;;;43.63;;
13941;SDS011;7043;51.630;7.254;2023-11-21T09:51:42;81.53;;;44.93;;
13941;SDS011;7043;51.630;7.254;2023-11-21T09:54:10;100.27;;;44.63;;
13941;SDS011;7043;51.630;7.254;2023-11-21T09:56:39;85.17;;;44.50;;
13941;SDS011;7043;51.630;7.254;2023-11-21T09:59:05;90.33;;;43.47;;
13941;SDS011;7043;51.630;7.254;2023-11-21T10:01:35;82.80;;;43.37;;
13941;SDS011;7043;51.630;7.254;2023-11-21T10:04:05;93.80;;;43.17;;
13941;SDS011;7043;51.630;7.254;2023-11-21T10:06:45;105.93;;;42.80;;
13941;SDS011;7043;51.630;7.254;2023-11-21T10:09:22;142.70;;;41.20;;
13941;SDS011;7043;51.630;7.254;2023-11-21T10:11:49;109.43;;;42.27;;
13941;SDS011;7043;51.630;7.254;2023-11-21T10:14:17;86.27;;;44.30;;
13941;SDS011;7043;51.630;7.254;2023-11-21T10:16:44;107.63;;;44.33;;
13941;SDS011;7043;51.630;7.254;2023-11-21T10:19:12;106.50;;;44.90;;
13941;SDS011;7043;51.630;7.254;2023-11-21T10:21:38;88.27;;;44.17;;
13941;SDS011;7043;51.630;7.254;2023-11-21T10:24:05;113.37;;;41.63;;
13941;SDS011;7043;51.630;7.254;2023-11-21T10:26:35;87.30;;;42.80;;
13941;SDS011;7043;51.630;7.254;2023-11-21T10:29:02;108.60;;;45.07;;
13941;SDS011;7043;51.630;7.254;2023-11-21T10:31:31;89.47;;;43.93;;
13941;SDS011;7043;51.630;7.254;2023-11-21T10:34:19;90.97;;;45.07;;
13941;SDS011;7043;51.630;7.254;2023-11-21T10:36:45;92.70;;;47.73;;
13941;SDS011;7043;51.630;7.254;2023-11-21T10:39:16;99.33;;;48.23;;
13941;SDS011;7043;51.630;7.254;2023-11-21T10:41:48;79.40;;;45.33;;
13941;SDS011;7043;51.630;7.254;2023-11-21T10:44:14;83.10;;;46.97;;
13941;SDS011;7043;51.630;7.254;2023-11-21T10:46:50;79.03;;;44.90;;
13941;SDS011;7043;51.630;7.254;2023-11-21T10:49:20;73.87;;;42.17;;
13941;SDS011;7043;51.630;7.254;2023-11-21T10:51:46;73.63;;;43.97;;
13941;SDS011;7043;51.630;7.254;2023-11-21T10:54:18;69.57;;;41.67;;
13941;SDS011;7043;51.630;7.254;2023-11-21T10:56:45;65.33;;;42.03;;
13941;SDS011;7043;51.630;7.254;2023-11-21T10:59:12;67.33;;;43.47;;
13941;SDS011;7043;51.630;7.254;2023-11-21T11:01:45;90.50;;;66.63;;
13941;SDS011;7043;51.630;7.254;2023-11-21T11:04:11;66.03;;;40.63;;
13941;SDS011;7043;51.630;7.254;2023-11-21T11:06:54;67.77;;;45.03;;
13941;SDS011;7043;51.630;7.254;2023-11-21T11:09:21;59.53;;;40.27;;
13941;SDS011;7043;51.630;7.254;2023-11-21T11:11:47;57.50;;;38.30;;
13941;SDS011;7043;51.630;7.254;2023-11-21T11:14:14;49.03;;;30.40;;
13941;SDS011;7043;51.630;7.254;2023-11-21T11:16:41;41.03;;;29.00;;
13941;SDS011;7043;51.630;7.254;2023-11-21T11:19:08;38.90;;;26.90;;
13941;SDS011;7043;51.630;7.254;2023-11-21T11:26:50;34.03;;;25.07;;
13941;SDS011;7043;51.630;7.254;2023-11-21T11:29:26;34.57;;;23.47;;
13941;SDS011;7043;51.630;7.254;2023-11-21T11:34:24;33.63;;;24.33;;
13941;SDS011;7043;51.630;7.254;2023-11-21T11:39:28;34.23;;;23.87;;
13941;SDS011;7043;51.630;7.254;2023-11-21T11:42:02;33.23;;;23.90;;
13941;SDS011;7043;51.630;7.254;2023-11-21T11:44:45;34.00;;;24.40;;
13941;SDS011;7043;51.630;7.254;2023-11-21T11:47:25;29.57;;;22.33;;
13941;SDS011;7043;51.630;7.254;2023-11-21T11:52:32;30.97;;;22.80;;
13941;SDS011;7043;51.630;7.254;2023-11-21T11:54:59;32.53;;;23.00;;
13941;SDS011;7043;51.630;7.254;2023-11-21T11:57:25;28.80;;;22.20;;
13941;SDS011;7043;51.630;7.254;2023-11-21T12:02:37;63.03;;;43.00;;
13941;SDS011;7043;51.630;7.254;2023-11-21T12:05:09;38.20;;;28.70;;
13941;SDS011;7043;51.630;7.254;2023-11-21T12:07:52;31.27;;;24.87;;
13941;SDS011;7043;51.630;7.254;2023-11-21T12:10:19;33.13;;;24.60;;
13941;SDS011;7043;51.630;7.254;2023-11-21T12:12:46;34.83;;;27.33;;
13941;SDS011;7043;51.630;7.254;2023-11-21T12:15:12;33.27;;;24.63;;
13941;SDS011;7043;51.630;7.254;2023-11-21T12:17:39;31.77;;;23.83;;
13941;SDS011;7043;51.630;7.254;2023-11-21T12:20:05;31.00;;;22.53;;
13941;SDS011;7043;51.630;7.254;2023-11-21T12:22:39;33.63;;;24.87;;
13941;SDS011;7043;51.630;7.254;2023-11-21T12:25:06;35.87;;;26.03;;
13941;SDS011;7043;51.630;7.254;2023-11-21T12:27:32;38.87;;;28.50;;
13941;SDS011;7043;51.630;7.254;2023-11-21T12:29:59;40.17;;;25.93;;
13941;SDS011;7043;51.630;7.254;2023-11-21T12:32:25;42.50;;;32.80;;
13941;SDS011;7043;51.630;7.254;2023-11-21T12:34:52;42.00;;;31.07;;
13941;SDS011;7043;51.630;7.254;2023-11-21T12:37:18;68.27;;;45.33;;
13941;SDS011;7043;51.630;7.254;2023-11-21T12:39:44;62.27;;;43.33;;
13941;SDS011;7043;51.630;7.254;2023-11-21T12:42:10;44.13;;;29.80;;
13941;SDS011;7043;51.630;7.254;2023-11-21T12:44:37;52.00;;;37.00;;
13941;SDS011;7043;51.630;7.254;2023-11-21T12:47:07;43.53;;;28.57;;
13941;SDS011;7043;51.630;7.254;2023-11-21T12:49:33;38.97;;;27.20;;
13941;SDS011;7043;51.630;7.254;2023-11-21T12:51:59;43.37;;;30.60;;
13941;SDS011;7043;51.630;7.254;2023-11-21T12:54:25;39.10;;;27.13;;
13941;SDS011;7043;51.630;7.254;2023-11-21T12:56:51;38.57;;;27.20;;
13941;SDS011;7043;51.630;7.254;2023-11-21T12:59:17;36.90;;;25.67;;
13941;SDS011;7043;51.630;7.254;2023-11-21T13:01:43;38.27;;;25.53;;
13941;SDS011;7043;51.630;7.254;2023-11-21T13:04:10;37.03;;;25.40;;
13941;SDS011;7043;51.630;7.254;2023-11-21T13:06:37;32.00;;;22.87;;
13941;SDS011;7043;51.630;7.254;2023-11-21T13:09:06;36.17;;;23.80;;
13941;SDS011;7043;51.630;7.254;2023-11-21T13:11:36;34.80;;;22.67;;
13941;SDS011;7043;51.630;7.254;2023-11-21T13:14:02;33.83;;;22.60;;
13941;SDS011;7043;51.630;7.254;2023-11-21T13:16:28;30.97;;;19.60;;
13941;SDS011;7043;51.630;7.254;2023-11-21T13:18:56;27.57;;;20.27;;
13941;SDS011;7043;51.630;7.254;2023-11-21T13:21:23;34.13;;;20.70;;
13941;SDS011;7043;51.630;7.254;2023-11-21T13:23:49;32.73;;;21.57;;
13941;SDS011;7043;51.630;7.254;2023-11-21T13:26:18;31.97;;;20.63;;
13941;SDS011;7043;51.630;7.254;2023-11-21T13:28:45;28.57;;;18.23;;
13941;SDS011;7043;51.630;7.254;2023-11-21T13:31:12;28.17;;;17.90;;
13941;SDS011;7043;51.630;7.254;2023-11-21T13:33:51;27.17;;;17.47;;
13941;SDS011;7043;51.630;7.254;2023-11-21T13:36:25;25.03;;;16.90;;
13941;SDS011;7043;51.630;7.254;2023-11-21T13:38:55;25.70;;;16.63;;
13941;SDS011;7043;51.630;7.254;2023-11-21T13:41:23;25.13;;;16.40;;
13941;SDS011;7043;51.630;7.254;2023-11-21T13:43:55;24.70;;;16.23;;
13941;SDS011;7043;51.630;7.254;2023-11-21T13:46:31;21.27;;;14.50;;
13941;SDS011;7043;51.630;7.254;2023-11-21T13:49:02;22.17;;;15.23;;
13941;SDS011;7043;51.630;7.254;2023-11-21T13:51:30;19.00;;;13.97;;
13941;SDS011;7043;51.630;7.254;2023-11-21T13:54:04;20.57;;;14.17;;
13941;SDS011;7043;51.630;7.254;2023-11-21T13:56:36;21.27;;;14.00;;
13941;SDS011;7043;51.630;7.254;2023-11-21T13:59:02;19.03;;;13.53;;
13941;SDS011;7043;51.630;7.254;2023-11-21T14:01:42;19.17;;;13.20;;
13941;SDS011;7043;51.630;7.254;2023-11-21T14:04:22;17.83;;;12.10;;
13941;SDS011;7043;51.630;7.254;2023-11-21T14:07:06;15.43;;;11.63;;
13941;SDS011;7043;51.630;7.254;2023-11-21T14:09:56;14.67;;;10.20;;
13941;SDS011;7043;51.630;7.254;2023-11-21T14:12:23;13.40;;;10.17;;
13941;SDS011;7043;51.630;7.254;2023-11-21T14:14:49;12.83;;;10.03;;
13941;SDS011;7043;51.630;7.254;2023-11-21T14:17:15;11.77;;;9.40;;
13941;SDS011;7043;51.630;7.254;2023-11-21T14:19:41;12.33;;;9.67;;
13941;SDS011;7043;51.630;7.254;2023-11-21T14:22:10;12.00;;;8.77;;
13941;SDS011;7043;51.630;7.254;2023-11-21T14:24:36;10.63;;;8.47;;
13941;SDS011;7043;51.630;7.254;2023-11-21T14:27:06;9.50;;;8.00;;
13941;SDS011;7043;51.630;7.254;2023-11-21T14:29:33;9.37;;;7.70;;
13941;SDS011;7043;51.630;7.254;2023-11-21T14:32:04;9.33;;;8.20;;
13941;SDS011;7043;51.630;7.254;2023-11-21T14:34:31;8.90;;;8.00;;
13941;SDS011;7043;51.630;7.254;2023-11-21T14:36:57;8.83;;;7.93;;
13941;SDS011;7043;51.630;7.254;2023-11-21T14:39:23;9.23;;;7.50;;
13941;SDS011;7043;51.630;7.254;2023-11-21T14:41:51;9.60;;;8.60;;
13941;SDS011;7043;51.630;7.254;2023-11-21T14:44:18;9.57;;;8.07;;
13941;SDS011;7043;51.630;7.254;2023-11-21T14:46:44;10.17;;;8.33;;
13941;SDS011;7043;51.630;7.254;2023-11-21T14:49:16;9.97;;;8.83;;
13941;SDS011;7043;51.630;7.254;2023-11-21T14:51:46;9.23;;;8.33;;
13941;SDS011;7043;51.630;7.254;2023-11-21T14:54:27;9.73;;;8.67;;